Pagina principale
METAR-TAF:

METAR-TAF

Aeroporti :

Piattaforma petrolifera

Hoorn-a, Paesi Bassi

latitudine: 52-55-05N, longitudine: 4-09-01E, altezza: 41 m

Osservazione

Il bollettino è stato emesso 39 minuti fa, alle 00:25 UTC
Vento 21 kt da nord-est
Temperature 15°C
Umidità 77%
Pressione 1024 hPa
Visibilità 10 km o più

METAR: EHQE 310025Z AUTO 05021KT 9999 NCD 15/11 Q1024

Ora: 03:04 (01:04 UTC)


TAF: mancante

Osservazioni e previsioni meteorologiche di più di 4000 aeroporti (messaggi METAR e TAF).

Le stazioni disponibili sono rappresentate dai dischi gialli e rossi sulla carta.

Puntare il mouse per vedere il nome della stazione.

Clicca sopra per visualizzare le osservazioni e previsioni meteorologiche.

Per cambiare la mappa : fare clic sui pulsanti verdi con una croce nera per ingrandire, il pulsante verde con un trattino per diminuire, o sulla freccia verde per le mappe adiacenti.


METAR-TAF: